Terminal Aerodrome Forecast
Issued by NWS Cleveland, OH

Home | Current Version | Previous Version | Text Only | Print | Product List | Glossary Off
Versions: 1 2 3 4 5 6 7 8 9 10 11 12 13 14

000
FTUS41 KCLE 242300
TAFERI
TAF
KERI 242330Z 2500/2524 17004KT P6SM SCT100 BKN200
     FM250900 18012KT P6SM SCT120 BKN200
     FM251400 20014G22KT P6SM FEW050 BKN150
     FM252000 22016G24KT P6SM VCTS SCT050CB BKN150=

USA.gov is the U.S. government's official web portal to all federal, state and local government web resources and services.